createdAt,value
2023-10-29T00:02:35.878Z,9.83
2023-10-29T00:05:09.201Z,10.71
2023-10-29T00:07:39.087Z,10.54
2023-10-29T00:10:21.262Z,9.88
2023-10-29T00:13:09.728Z,10.12
2023-10-29T00:15:43.662Z,10.41
2023-10-29T00:18:38.777Z,9.73
2023-10-29T00:21:16.088Z,10.78
2023-10-29T00:23:48.397Z,10.51
2023-10-29T00:26:19.102Z,10.55
2023-10-29T00:28:52.536Z,10.87
2023-10-29T00:31:21.646Z,10.86
2023-10-29T00:33:49.804Z,10.92
2023-10-29T00:36:17.700Z,10.88
2023-10-29T00:38:45.909Z,10.99
2023-10-29T00:41:15.100Z,10.88
2023-10-29T00:43:43.687Z,10.64
2023-10-29T00:46:15.903Z,10.99
2023-10-29T00:48:44.868Z,10.84
2023-10-29T00:51:14.348Z,11.01
2023-10-29T00:53:43.528Z,11.01
2023-10-29T00:56:12.940Z,11.00
2023-10-29T00:58:42.224Z,11.05
2023-10-29T01:01:11.606Z,11.02
2023-10-29T01:03:42.712Z,11.07
2023-10-29T01:06:13.792Z,11.06
2023-10-29T01:08:43.443Z,11.09
2023-10-29T01:11:11.451Z,11.12
2023-10-29T01:13:40.180Z,11.10
2023-10-29T01:16:09.335Z,11.15
2023-10-29T01:18:37.742Z,11.08
2023-10-29T01:21:10.000Z,11.17
2023-10-29T01:23:38.982Z,11.21
2023-10-29T01:26:08.576Z,11.06
2023-10-29T01:28:36.750Z,11.08
2023-10-29T01:31:06.461Z,11.22
2023-10-29T01:33:34.870Z,11.27
2023-10-29T01:36:02.849Z,11.33
2023-10-29T01:38:33.561Z,11.15
2023-10-29T01:41:01.916Z,11.23
2023-10-29T01:43:30.408Z,11.13
2023-10-29T01:45:58.586Z,11.06
2023-10-29T01:48:27.079Z,11.21
2023-10-29T01:50:55.109Z,11.23
2023-10-29T01:53:23.760Z,11.27
2023-10-29T01:55:53.338Z,11.27
2023-10-29T01:58:21.940Z,11.30
2023-10-29T02:00:50.129Z,11.12
2023-10-29T02:03:18.668Z,11.31
2023-10-29T02:05:46.892Z,11.34
2023-10-29T02:08:15.319Z,11.23
2023-10-29T02:10:44.280Z,11.17
2023-10-29T02:13:15.927Z,11.29
2023-10-29T02:15:44.775Z,11.26
2023-10-29T02:18:13.566Z,11.34
2023-10-29T02:20:41.566Z,11.39
2023-10-29T02:23:10.941Z,11.44
2023-10-29T02:25:40.262Z,11.43
2023-10-29T02:28:08.475Z,11.43
2023-10-29T02:30:36.585Z,11.47
2023-10-29T02:33:04.680Z,11.50
2023-10-29T02:35:32.777Z,11.44
2023-10-29T02:38:02.438Z,11.46
2023-10-29T02:40:32.343Z,11.45
2023-10-29T02:43:00.827Z,11.46
2023-10-29T02:45:28.836Z,11.47
2023-10-29T02:47:57.343Z,11.46
2023-10-29T02:50:25.397Z,11.46
2023-10-29T02:52:53.922Z,11.49
2023-10-29T02:55:21.981Z,11.46
2023-10-29T02:57:51.252Z,11.45
2023-10-29T03:00:20.493Z,11.46
2023-10-29T03:02:49.188Z,11.47
2023-10-29T03:05:19.874Z,11.57
2023-10-29T03:07:50.414Z,11.53
2023-10-29T03:10:18.650Z,11.55
2023-10-29T03:12:47.043Z,11.63
2023-10-29T03:15:17.260Z,11.59
2023-10-29T03:17:45.773Z,11.67
2023-10-29T03:20:17.465Z,11.65
2023-10-29T03:22:45.654Z,11.66
2023-10-29T03:25:14.292Z,11.70
2023-10-29T03:27:42.713Z,11.73
2023-10-29T03:30:11.690Z,11.85
2023-10-29T03:32:42.536Z,11.77
2023-10-29T03:35:10.466Z,11.75
2023-10-29T03:37:38.941Z,11.28
2023-10-29T03:40:08.602Z,11.43
2023-10-29T03:42:37.068Z,11.65
2023-10-29T03:45:06.024Z,11.58
2023-10-29T03:47:34.318Z,11.69
2023-10-29T03:50:05.611Z,11.71
2023-10-29T03:52:34.473Z,11.65
2023-10-29T03:55:02.849Z,11.58
2023-10-29T03:57:30.999Z,11.58
2023-10-29T03:59:59.471Z,11.66
2023-10-29T04:02:28.082Z,11.65
2023-10-29T04:05:06.162Z,11.64
2023-10-29T04:07:38.921Z,11.63
2023-10-29T04:10:10.568Z,11.72
2023-10-29T04:12:38.730Z,10.89
2023-10-29T04:15:08.963Z,11.61
2023-10-29T04:17:37.708Z,11.62
2023-10-29T04:20:07.249Z,11.67
2023-10-29T04:22:35.423Z,11.68
2023-10-29T04:25:05.690Z,11.15
2023-10-29T04:27:33.762Z,11.73
2023-10-29T04:30:02.052Z,11.74
2023-10-29T04:32:30.601Z,11.67
2023-10-29T04:34:58.597Z,11.61
2023-10-29T04:37:27.207Z,11.62
2023-10-29T04:39:55.275Z,11.46
2023-10-29T04:42:24.827Z,11.62
2023-10-29T04:44:53.212Z,11.58
2023-10-29T04:47:21.129Z,11.71
2023-10-29T04:49:50.104Z,11.69
2023-10-29T04:52:20.434Z,11.71
2023-10-29T04:54:48.358Z,11.70
2023-10-29T04:57:20.968Z,11.75
2023-10-29T04:59:50.779Z,11.73
2023-10-29T05:02:19.343Z,11.72
2023-10-29T05:04:47.479Z,11.70
2023-10-29T05:07:15.500Z,11.67
2023-10-29T05:09:43.648Z,11.71
2023-10-29T05:12:12.769Z,11.79
2023-10-29T05:14:40.870Z,11.78
2023-10-29T05:17:11.935Z,11.80
2023-10-29T05:19:40.958Z,11.65
2023-10-29T05:22:09.408Z,11.81
2023-10-29T05:24:37.890Z,11.92
2023-10-29T05:27:06.347Z,11.92
2023-10-29T05:29:35.167Z,11.85
2023-10-29T05:32:03.780Z,11.86
2023-10-29T05:34:34.660Z,11.75
2023-10-29T05:37:02.613Z,11.25
2023-10-29T05:39:30.860Z,11.77
2023-10-29T05:41:59.167Z,11.95
2023-10-29T05:44:27.858Z,12.05
2023-10-29T05:46:55.790Z,11.23
2023-10-29T05:49:24.382Z,11.96
2023-10-29T05:51:53.904Z,11.59
2023-10-29T05:54:21.859Z,12.05
2023-10-29T05:56:49.891Z,11.42
2023-10-29T05:59:19.798Z,12.01
2023-10-29T06:01:48.028Z,12.03
2023-10-29T06:04:16.261Z,11.97
2023-10-29T06:06:44.260Z,12.01
2023-10-29T06:09:23.639Z,12.00
2023-10-29T06:11:54.399Z,11.81
2023-10-29T06:14:24.138Z,12.00
2023-10-29T06:17:01.338Z,11.96
2023-10-29T06:19:34.634Z,11.74
2023-10-29T06:22:02.731Z,12.03
2023-10-29T06:24:33.075Z,11.35
2023-10-29T06:27:01.302Z,12.05
2023-10-29T06:29:29.600Z,12.00
2023-10-29T06:31:58.384Z,12.08
2023-10-29T06:34:26.835Z,11.98
2023-10-29T06:36:55.175Z,12.05
2023-10-29T06:39:24.853Z,12.01
2023-10-29T06:41:54.501Z,11.93
2023-10-29T06:44:23.159Z,12.00
2023-10-29T06:46:52.128Z,12.01
2023-10-29T06:49:20.625Z,12.06
2023-10-29T06:51:49.798Z,12.02
2023-10-29T06:54:17.891Z,12.05
2023-10-29T06:56:46.338Z,12.06
2023-10-29T06:59:15.727Z,11.52
2023-10-29T07:01:44.382Z,12.02
2023-10-29T07:04:12.873Z,11.36
2023-10-29T07:06:43.550Z,12.14
2023-10-29T07:09:12.075Z,12.21
2023-10-29T07:11:41.567Z,12.14
2023-10-29T07:14:09.641Z,12.29
2023-10-29T07:16:39.939Z,12.25
2023-10-29T07:19:07.968Z,12.24
2023-10-29T07:21:37.247Z,12.30
2023-10-29T07:24:06.343Z,12.16
2023-10-29T07:26:34.849Z,11.93
2023-10-29T07:29:03.545Z,12.35
2023-10-29T07:31:31.639Z,12.37
2023-10-29T07:34:01.681Z,11.83
2023-10-29T07:36:30.286Z,12.38
2023-10-29T07:38:59.152Z,12.39
2023-10-29T07:41:27.788Z,12.38
2023-10-29T07:43:56.349Z,12.32
2023-10-29T07:46:24.852Z,11.66
2023-10-29T07:48:53.387Z,11.57
2023-10-29T07:51:22.948Z,12.47
2023-10-29T07:53:51.852Z,12.47
2023-10-29T07:56:20.729Z,12.53
2023-10-29T07:58:50.376Z,12.51
2023-10-29T08:01:20.169Z,12.55
2023-10-29T08:03:49.816Z,12.60
2023-10-29T08:06:18.097Z,12.61
2023-10-29T08:08:48.085Z,12.64
2023-10-29T08:11:20.657Z,12.69
2023-10-29T08:13:49.235Z,12.64
2023-10-29T08:16:18.529Z,12.72
2023-10-29T08:18:46.761Z,12.78
2023-10-29T08:21:16.307Z,12.71
2023-10-29T08:23:44.771Z,12.77
2023-10-29T08:26:15.315Z,12.77
2023-10-29T08:28:43.847Z,12.33
2023-10-29T08:31:13.774Z,12.23
2023-10-29T08:33:41.832Z,12.88
2023-10-29T08:36:10.214Z,12.94
2023-10-29T08:38:38.396Z,12.95
2023-10-29T08:41:16.711Z,12.92
2023-10-29T08:43:45.737Z,12.89
2023-10-29T08:46:14.753Z,13.02
2023-10-29T08:48:43.158Z,12.41
2023-10-29T08:51:13.287Z,13.08
2023-10-29T08:53:41.961Z,13.10
2023-10-29T08:56:10.028Z,13.19
2023-10-29T08:58:40.092Z,13.29
2023-10-29T09:01:09.046Z,13.48
2023-10-29T09:03:37.739Z,13.56
2023-10-29T09:06:07.318Z,14.09
2023-10-29T09:08:35.838Z,14.25
2023-10-29T09:11:04.473Z,14.35
2023-10-29T09:13:33.224Z,14.32
2023-10-29T09:16:03.240Z,14.09
2023-10-29T09:18:31.775Z,14.65
2023-10-29T09:21:00.186Z,14.65
2023-10-29T09:23:30.410Z,14.88
2023-10-29T09:25:58.664Z,15.03
2023-10-29T09:28:28.086Z,14.84
2023-10-29T09:30:56.333Z,14.68
2023-10-29T09:33:25.741Z,14.72
2023-10-29T09:35:54.357Z,14.62
2023-10-29T09:38:22.803Z,14.63
2023-10-29T09:40:55.097Z,14.21
2023-10-29T09:43:28.982Z,14.39
2023-10-29T09:45:57.452Z,14.39
2023-10-29T09:48:28.992Z,14.02
2023-10-29T09:50:57.463Z,13.86
2023-10-29T09:53:26.388Z,14.03
2023-10-29T09:55:56.901Z,14.10
2023-10-29T09:58:25.251Z,14.36
2023-10-29T10:00:53.604Z,14.33
2023-10-29T10:03:22.088Z,14.33
2023-10-29T10:05:51.861Z,14.32
2023-10-29T10:08:25.638Z,14.39
2023-10-29T10:10:54.201Z,14.26
2023-10-29T10:13:37.619Z,14.25
2023-10-29T10:16:10.560Z,14.27
2023-10-29T10:18:52.727Z,14.22
2023-10-29T10:21:24.394Z,14.28
2023-10-29T10:23:53.974Z,14.24
2023-10-29T10:26:30.342Z,14.30
2023-10-29T10:28:59.949Z,14.43
2023-10-29T10:31:28.905Z,14.32
2023-10-29T10:34:13.094Z,14.28
2023-10-29T10:36:43.130Z,14.29
2023-10-29T10:39:12.667Z,14.27
2023-10-29T10:41:43.802Z,14.37
2023-10-29T10:44:14.455Z,14.40
2023-10-29T10:46:50.642Z,14.35
2023-10-29T10:49:19.795Z,14.47
2023-10-29T10:51:51.221Z,14.35
2023-10-29T10:54:20.361Z,14.35
2023-10-29T10:56:50.269Z,14.29
2023-10-29T10:59:19.054Z,14.31
2023-10-29T11:01:47.126Z,14.33
2023-10-29T11:04:16.259Z,14.39
2023-10-29T11:06:45.347Z,14.37
2023-10-29T11:09:18.504Z,14.32
2023-10-29T11:11:49.036Z,14.40
2023-10-29T11:14:18.449Z,14.34
2023-10-29T11:16:53.475Z,14.41
2023-10-29T11:19:47.226Z,14.51
2023-10-29T11:22:17.339Z,14.51
2023-10-29T11:25:06.860Z,14.47
2023-10-29T11:27:36.720Z,14.47
2023-10-29T11:30:15.812Z,14.44
2023-10-29T11:32:45.364Z,14.39
2023-10-29T11:35:21.616Z,14.44
2023-10-29T11:37:51.028Z,14.51
2023-10-29T11:40:35.582Z,14.55
2023-10-29T11:43:18.069Z,14.59
2023-10-29T11:46:00.016Z,14.68
2023-10-29T11:48:31.441Z,14.64
2023-10-29T11:51:19.608Z,14.69
2023-10-29T11:53:48.502Z,14.62
2023-10-29T11:56:20.069Z,14.63
2023-10-29T11:58:48.018Z,14.64
2023-10-29T12:01:22.389Z,14.52
2023-10-29T12:03:54.483Z,14.59
2023-10-29T12:06:22.916Z,14.68
2023-10-29T12:08:51.235Z,14.70
2023-10-29T12:11:28.547Z,14.58
2023-10-29T12:13:56.560Z,14.51
2023-10-29T12:16:24.536Z,14.68
2023-10-29T12:18:53.006Z,14.49
2023-10-29T12:21:21.568Z,14.65
2023-10-29T12:23:50.772Z,14.48
2023-10-29T12:26:20.709Z,14.51
2023-10-29T12:28:50.617Z,14.47
2023-10-29T12:31:26.123Z,14.47
2023-10-29T12:33:58.179Z,14.01
2023-10-29T12:36:27.245Z,14.25
2023-10-29T12:38:55.966Z,14.58
2023-10-29T12:41:28.863Z,14.64
2023-10-29T12:43:57.218Z,14.71
2023-10-29T12:46:27.221Z,14.83
2023-10-29T12:48:59.439Z,14.90
2023-10-29T12:51:28.288Z,14.97
2023-10-29T12:54:12.379Z,14.85
2023-10-29T12:56:53.197Z,14.78
2023-10-29T12:59:22.511Z,14.74
2023-10-29T13:01:51.761Z,14.43
2023-10-29T13:04:21.044Z,14.60
2023-10-29T13:06:49.109Z,14.27
2023-10-29T13:09:19.631Z,14.44
2023-10-29T13:11:48.024Z,14.43
2023-10-29T13:14:17.377Z,14.50
2023-10-29T13:16:46.968Z,14.29
2023-10-29T13:19:15.708Z,14.39
2023-10-29T13:21:43.932Z,14.37
2023-10-29T13:24:13.311Z,14.36
2023-10-29T13:26:42.256Z,14.28
2023-10-29T13:29:13.755Z,14.41
2023-10-29T13:31:44.383Z,14.18
2023-10-29T13:34:14.435Z,14.42
2023-10-29T13:36:43.060Z,14.28
2023-10-29T13:39:12.180Z,14.25
2023-10-29T13:41:41.442Z,14.13
2023-10-29T13:44:09.796Z,13.75
2023-10-29T13:46:38.022Z,14.22
2023-10-29T13:49:07.916Z,13.58
2023-10-29T13:51:36.774Z,14.17
2023-10-29T13:54:05.593Z,14.07
2023-10-29T13:56:34.362Z,14.21
2023-10-29T13:59:02.551Z,14.07
2023-10-29T14:01:30.851Z,14.13
2023-10-29T14:03:59.739Z,13.19
2023-10-29T14:06:31.425Z,13.58
2023-10-29T14:08:59.807Z,14.06
2023-10-29T14:11:29.577Z,14.06
2023-10-29T14:13:59.413Z,13.94
2023-10-29T14:16:38.962Z,13.84
2023-10-29T14:19:07.932Z,13.88
2023-10-29T14:21:37.842Z,13.85
2023-10-29T14:24:09.083Z,13.85
2023-10-29T14:26:38.005Z,13.75
2023-10-29T14:29:06.397Z,13.79
2023-10-29T14:31:36.044Z,13.86
2023-10-29T14:34:05.137Z,13.64
2023-10-29T14:36:33.665Z,13.09
2023-10-29T14:39:03.734Z,13.28
2023-10-29T14:41:32.479Z,13.53
2023-10-29T14:44:01.135Z,13.09
2023-10-29T14:46:29.394Z,13.37
2023-10-29T14:48:57.403Z,12.66
2023-10-29T14:51:25.500Z,13.42
2023-10-29T14:53:53.877Z,12.44
2023-10-29T14:56:24.995Z,13.37
2023-10-29T14:58:54.139Z,12.47
2023-10-29T15:01:25.131Z,13.25
2023-10-29T15:03:54.329Z,12.98
2023-10-29T15:06:22.771Z,13.22
2023-10-29T15:08:51.408Z,12.67
2023-10-29T15:11:33.743Z,12.77
2023-10-29T15:14:07.146Z,12.61
2023-10-29T15:16:35.722Z,13.11
2023-10-29T15:19:06.402Z,13.15
2023-10-29T15:21:35.770Z,13.02
2023-10-29T15:24:05.425Z,12.41
2023-10-29T15:26:33.819Z,12.91
2023-10-29T15:29:02.529Z,12.89
2023-10-29T15:31:33.300Z,12.85
2023-10-29T15:34:02.199Z,12.62
2023-10-29T15:36:41.189Z,12.86
2023-10-29T15:39:10.317Z,12.81
2023-10-29T15:41:43.774Z,12.95
2023-10-29T15:44:26.170Z,13.23
2023-10-29T15:47:10.818Z,12.32
2023-10-29T15:49:44.825Z,13.21
2023-10-29T15:52:29.477Z,12.28
2023-10-29T15:55:00.002Z,12.22
2023-10-29T15:57:28.079Z,13.00
2023-10-29T16:03:17.909Z,12.86
2023-10-29T16:05:51.921Z,12.66
2023-10-29T16:08:26.478Z,12.28
2023-10-29T16:11:23.429Z,13.16
2023-10-29T16:14:15.299Z,12.86
2023-10-29T16:17:19.261Z,12.14
2023-10-29T16:20:06.938Z,12.44
2023-10-29T16:22:58.449Z,13.35
2023-10-29T16:25:36.096Z,13.32
2023-10-29T16:28:20.910Z,13.14
2023-10-29T16:31:00.541Z,12.29
2023-10-29T16:33:47.260Z,12.85
2023-10-29T16:36:29.014Z,13.39
2023-10-29T16:39:10.180Z,12.41
2023-10-29T16:41:42.664Z,12.85
2023-10-29T16:44:31.968Z,12.37
2023-10-29T16:47:02.312Z,12.18
2023-10-29T16:49:53.394Z,12.88
2023-10-29T16:53:07.805Z,12.50
2023-10-29T16:55:46.896Z,13.17
2023-10-29T16:59:35.600Z,13.17
2023-10-29T17:01:32.421Z,12.92
2023-10-29T17:04:00.838Z,12.51
2023-10-29T17:06:36.840Z,13.20
2023-10-29T17:09:12.796Z,12.16
2023-10-29T17:12:04.069Z,13.16
2023-10-29T17:14:48.130Z,12.36
2023-10-29T17:17:34.993Z,12.17
2023-10-29T17:20:31.607Z,12.37
2023-10-29T17:23:30.038Z,12.88
2023-10-29T17:26:26.021Z,12.12
2023-10-29T17:28:56.518Z,12.05
2023-10-29T17:31:38.218Z,12.21
2023-10-29T17:34:16.696Z,11.98
2023-10-29T17:36:49.750Z,12.84
2023-10-29T17:39:33.047Z,12.07
2023-10-29T17:42:02.996Z,12.71
2023-10-29T17:44:31.679Z,12.04
2023-10-29T17:46:59.994Z,12.81
2023-10-29T17:49:28.225Z,12.79
2023-10-29T17:51:56.321Z,11.86
2023-10-29T17:54:26.120Z,12.69
2023-10-29T17:56:55.108Z,12.35
2023-10-29T17:59:26.270Z,12.65
2023-10-29T18:01:54.419Z,12.41
2023-10-29T18:04:23.090Z,12.43
2023-10-29T18:06:52.558Z,11.86
2023-10-29T18:09:31.634Z,12.50
2023-10-29T18:12:13.193Z,12.01
2023-10-29T18:14:56.225Z,11.43
2023-10-29T18:17:40.851Z,12.11
2023-10-29T18:20:32.583Z,12.39
2023-10-29T18:23:14.065Z,12.07
2023-10-29T18:26:17.813Z,11.74
2023-10-29T18:29:01.222Z,12.07
2023-10-29T18:32:10.238Z,12.01
2023-10-29T18:34:58.421Z,11.74
2023-10-29T18:41:07.809Z,11.88
2023-10-29T18:46:42.993Z,11.80
2023-10-29T18:49:18.568Z,11.54
2023-10-29T18:51:52.651Z,12.16
2023-10-29T18:54:44.926Z,12.05
2023-10-29T18:57:19.152Z,11.46
2023-10-29T19:00:05.111Z,11.70
2023-10-29T19:03:06.376Z,10.92
2023-10-29T19:05:39.867Z,11.03
2023-10-29T19:08:18.870Z,11.73
2023-10-29T19:10:57.751Z,11.65
2023-10-29T19:13:34.338Z,11.52
2023-10-29T19:16:20.486Z,11.20
2023-10-29T19:19:03.966Z,11.15
2023-10-29T19:22:07.143Z,11.79
2023-10-29T19:24:47.489Z,10.66
2023-10-29T19:27:27.888Z,11.82
2023-10-29T19:30:27.970Z,11.27
2023-10-29T19:33:03.565Z,10.75
2023-10-29T19:35:37.472Z,11.33
2023-10-29T19:38:25.757Z,11.52
2023-10-29T19:41:11.390Z,11.26
2023-10-29T19:43:52.830Z,10.72
2023-10-29T19:46:28.939Z,11.37
2023-10-29T19:49:05.029Z,11.63
2023-10-29T19:51:33.316Z,11.68
2023-10-29T19:54:03.187Z,11.64
2023-10-29T19:56:31.468Z,10.99
2023-10-29T19:59:01.175Z,11.20
2023-10-29T20:01:29.246Z,11.50
2023-10-29T20:03:59.089Z,11.58
2023-10-29T20:06:30.475Z,11.35
2023-10-29T20:08:58.930Z,11.61
2023-10-29T20:11:31.866Z,10.70
2023-10-29T20:14:04.328Z,10.70
2023-10-29T20:16:54.194Z,11.35
2023-10-29T20:19:33.375Z,11.59
2023-10-29T20:22:06.158Z,11.57
2023-10-29T20:24:42.136Z,10.78
2023-10-29T20:27:20.069Z,10.46
2023-10-29T20:29:50.551Z,10.81
2023-10-29T20:32:23.744Z,11.32
2023-10-29T20:34:57.372Z,10.73
2023-10-29T20:37:31.813Z,10.86
2023-10-29T20:40:11.674Z,10.80
2023-10-29T20:43:10.296Z,10.77
2023-10-29T20:45:44.520Z,11.41
2023-10-29T20:48:32.444Z,10.84
2023-10-29T20:51:06.949Z,10.87
2023-10-29T20:53:37.845Z,11.43
2023-10-29T20:56:09.093Z,11.48
2023-10-29T20:58:47.205Z,10.50
2023-10-29T21:01:18.049Z,10.52
2023-10-29T21:03:47.399Z,11.16
2023-10-29T21:06:30.983Z,11.35
2023-10-29T21:11:59.672Z,10.54
2023-10-29T21:14:38.826Z,10.97
2023-10-29T21:17:33.567Z,11.42
2023-10-29T21:20:30.024Z,11.09
2023-10-29T21:23:05.359Z,10.75
2023-10-29T21:25:51.464Z,10.40
2023-10-29T21:28:23.341Z,11.30
2023-10-29T21:31:02.498Z,11.17
2023-10-29T21:33:42.059Z,11.04
2023-10-29T21:36:42.178Z,11.18
2023-10-29T21:39:10.628Z,10.53
2023-10-29T21:41:44.533Z,10.46
2023-10-29T21:44:16.636Z,11.27
2023-10-29T21:46:57.919Z,10.78
2023-10-29T21:49:45.474Z,11.54
2023-10-29T21:52:34.440Z,11.42
2023-10-29T21:55:18.767Z,10.79
2023-10-29T21:58:09.405Z,10.87
2023-10-29T22:01:16.104Z,11.12
2023-10-29T22:03:56.926Z,11.73
2023-10-29T22:06:42.489Z,11.98
2023-10-29T22:09:34.339Z,11.81
2023-10-29T22:12:11.463Z,11.65
2023-10-29T22:14:42.132Z,11.15
2023-10-29T22:17:25.067Z,12.03
2023-10-29T22:20:10.636Z,11.97
2023-10-29T22:22:55.168Z,11.27
2023-10-29T22:25:58.971Z,11.38
2023-10-29T22:28:37.188Z,11.24
2023-10-29T22:31:50.096Z,12.02
2023-10-29T22:34:24.464Z,11.00
2023-10-29T22:36:59.908Z,10.90
2023-10-29T22:39:44.109Z,11.87
2023-10-29T22:42:15.958Z,11.48
2023-10-29T22:44:45.431Z,11.44
2023-10-29T22:47:17.768Z,12.03
2023-10-29T22:49:52.315Z,11.68
2023-10-29T22:52:32.861Z,12.10
2023-10-29T22:55:01.493Z,11.12
2023-10-29T22:57:32.093Z,10.79
2023-10-29T23:00:04.174Z,11.67
2023-10-29T23:02:35.278Z,11.56
2023-10-29T23:05:05.612Z,11.47
2023-10-29T23:07:37.068Z,11.25
2023-10-29T23:10:09.360Z,11.96
2023-10-29T23:12:44.951Z,10.88
2023-10-29T23:15:25.349Z,10.73
2023-10-29T23:17:59.743Z,10.86
2023-10-29T23:20:28.403Z,10.77
2023-10-29T23:23:25.387Z,10.91
2023-10-29T23:26:06.201Z,10.83
2023-10-29T23:28:52.108Z,11.63
2023-10-29T23:31:20.927Z,11.48
2023-10-29T23:33:55.993Z,10.79
2023-10-29T23:36:24.352Z,10.93
2023-10-29T23:39:03.804Z,10.69
2023-10-29T23:41:34.267Z,11.19
2023-10-29T23:44:06.086Z,11.06
2023-10-29T23:46:34.793Z,10.92
2023-10-29T23:49:06.420Z,10.66
2023-10-29T23:51:38.722Z,11.05
2023-10-29T23:54:09.360Z,10.64
2023-10-29T23:56:53.511Z,10.29
2023-10-29T23:59:43.840Z,10.01
